createdAt,value
2022-09-23T00:00:32.125Z,7.29
2022-09-23T00:02:04.609Z,7.30
2022-09-23T00:03:37.388Z,7.29
2022-09-23T00:05:10.440Z,7.27
2022-09-23T00:06:44.157Z,7.26
2022-09-23T00:08:16.023Z,7.27
2022-09-23T00:09:47.953Z,7.31
2022-09-23T00:11:24.071Z,7.33
2022-09-23T00:12:56.138Z,7.35
2022-09-23T00:14:28.006Z,7.37
2022-09-23T00:16:14.990Z,7.39
2022-09-23T00:17:47.424Z,7.39
2022-09-23T00:19:19.290Z,7.39
2022-09-23T00:20:51.236Z,7.40
2022-09-23T00:22:23.146Z,7.42
2022-09-23T00:23:54.990Z,7.41
2022-09-23T00:25:29.793Z,7.40
2022-09-23T00:27:01.659Z,7.40
2022-09-23T00:28:34.127Z,7.39
2022-09-23T00:30:07.112Z,7.40
2022-09-23T00:31:38.889Z,7.40
2022-09-23T00:33:10.746Z,7.40
2022-09-23T00:34:44.365Z,7.43
2022-09-23T00:36:16.346Z,7.42
2022-09-23T00:37:48.264Z,7.40
2022-09-23T00:39:20.275Z,7.40
2022-09-23T00:40:52.238Z,7.40
2022-09-23T00:42:24.305Z,7.37
2022-09-23T00:43:57.873Z,7.38
2022-09-23T00:45:29.961Z,7.38
2022-09-23T00:47:01.830Z,7.39
2022-09-23T00:48:34.615Z,7.38
2022-09-23T00:50:10.243Z,7.36
2022-09-23T00:51:45.622Z,7.35
2022-09-23T00:53:21.178Z,7.32
2022-09-23T00:54:55.280Z,7.30
2022-09-23T00:56:27.285Z,7.28
2022-09-23T00:58:01.454Z,7.27
2022-09-23T00:59:33.605Z,7.25
2022-09-23T01:01:05.764Z,7.22
2022-09-23T01:02:37.921Z,7.21
2022-09-23T01:04:09.945Z,7.20
2022-09-23T01:05:42.626Z,7.19
2022-09-23T01:07:14.529Z,7.18
2022-09-23T01:08:47.590Z,7.16
2022-09-23T01:10:19.757Z,7.13
2022-09-23T01:12:03.716Z,7.09
2022-09-23T01:13:47.018Z,7.07
2022-09-23T01:15:21.746Z,7.02
2022-09-23T01:17:27.394Z,7.01
2022-09-23T01:19:08.524Z,6.97
2022-09-23T01:20:59.452Z,6.94
2022-09-23T01:22:38.469Z,6.92
2022-09-23T01:24:10.331Z,6.89
2022-09-23T01:26:01.231Z,6.88
2022-09-23T01:27:56.340Z,6.87
2022-09-23T01:29:46.822Z,6.88
2022-09-23T01:31:37.493Z,6.87
2022-09-23T01:33:15.604Z,6.88
2022-09-23T01:35:08.502Z,6.88
2022-09-23T01:36:43.901Z,6.88
2022-09-23T01:38:25.265Z,6.88
2022-09-23T01:40:02.120Z,6.88
2022-09-23T01:41:33.968Z,6.85
2022-09-23T01:43:15.710Z,6.87
2022-09-23T01:44:56.980Z,6.88
2022-09-23T01:46:52.040Z,6.89
2022-09-23T01:48:27.865Z,6.91
2022-09-23T01:50:30.965Z,6.89
2022-09-23T01:52:05.873Z,6.87
2022-09-23T01:53:46.619Z,6.86
2022-09-23T01:55:25.776Z,6.84
2022-09-23T01:57:01.712Z,6.83
2022-09-23T01:58:46.631Z,6.82
2022-09-23T02:00:20.213Z,6.80
2022-09-23T02:02:25.321Z,6.81
2022-09-23T02:04:10.203Z,6.80
2022-09-23T02:05:48.230Z,6.79
2022-09-23T02:07:41.670Z,6.78
2022-09-23T02:09:31.776Z,6.75
2022-09-23T02:11:18.593Z,6.73
2022-09-23T02:13:11.555Z,6.70
2022-09-23T02:15:07.236Z,6.70
2022-09-23T02:16:56.175Z,6.67
2022-09-23T02:18:49.842Z,6.66
2022-09-23T02:20:39.644Z,6.63
2022-09-23T02:22:35.968Z,6.61
2022-09-23T02:24:27.316Z,6.59
2022-09-23T02:26:14.158Z,6.58
2022-09-23T02:28:07.585Z,6.55
2022-09-23T02:30:02.946Z,6.51
2022-09-23T02:31:50.500Z,6.48
2022-09-23T02:33:41.794Z,6.41
2022-09-23T02:35:34.750Z,6.36
2022-09-23T02:37:21.637Z,6.28
2022-09-23T02:39:10.788Z,6.23
2022-09-23T02:41:04.695Z,6.19
2022-09-23T02:43:10.789Z,6.12
2022-09-23T02:44:59.004Z,6.08
2022-09-23T02:46:46.295Z,6.04
2022-09-23T02:48:40.726Z,6.02
2022-09-23T02:50:27.516Z,5.96
2022-09-23T02:52:14.392Z,5.93
2022-09-23T02:54:03.564Z,5.88
2022-09-23T02:55:51.114Z,5.85
2022-09-23T02:57:38.121Z,5.82
2022-09-23T02:59:24.954Z,5.76
2022-09-23T03:01:31.518Z,5.70
2022-09-23T03:03:33.929Z,5.65
2022-09-23T03:05:31.247Z,5.63
2022-09-23T03:07:21.039Z,5.64
2022-09-23T03:09:15.164Z,5.66
2022-09-23T03:11:06.951Z,5.66
2022-09-23T03:13:00.529Z,5.71
2022-09-23T03:14:58.690Z,5.70
2022-09-23T03:16:48.056Z,5.68
2022-09-23T03:18:45.815Z,5.70
2022-09-23T03:20:50.183Z,5.70
2022-09-23T03:22:44.880Z,5.70
2022-09-23T03:24:32.898Z,5.73
2022-09-23T03:26:23.242Z,5.75
2022-09-23T03:28:11.169Z,5.74
2022-09-23T03:29:58.583Z,5.75
2022-09-23T03:31:45.607Z,5.75
2022-09-23T03:33:33.201Z,5.72
2022-09-23T03:35:22.514Z,5.71
2022-09-23T03:37:24.396Z,5.69
2022-09-23T03:39:20.320Z,5.67
2022-09-23T03:41:09.806Z,5.66
2022-09-23T03:42:57.490Z,5.66
2022-09-23T03:44:45.679Z,5.64
2022-09-23T03:46:34.060Z,5.62
2022-09-23T03:48:22.370Z,5.60
2022-09-23T03:50:09.490Z,5.59
2022-09-23T03:51:56.297Z,5.60
2022-09-23T03:53:43.299Z,5.61
2022-09-23T03:55:30.096Z,5.59
2022-09-23T03:57:16.967Z,5.60
2022-09-23T03:59:03.833Z,5.60
2022-09-23T04:00:50.719Z,5.62
2022-09-23T04:02:37.542Z,5.61
2022-09-23T04:04:24.654Z,5.57
2022-09-23T04:06:11.486Z,5.55
2022-09-23T04:07:58.327Z,5.55
2022-09-23T04:09:48.706Z,5.54
2022-09-23T04:11:39.197Z,5.53
2022-09-23T04:13:29.520Z,5.54
2022-09-23T04:15:20.072Z,5.53
2022-09-23T04:17:11.245Z,5.54
2022-09-23T04:19:01.433Z,5.51
2022-09-23T04:20:51.986Z,5.48
2022-09-23T04:22:42.874Z,5.47
2022-09-23T04:24:33.291Z,5.45
2022-09-23T04:26:23.567Z,5.46
2022-09-23T04:28:14.386Z,5.44
2022-09-23T04:30:05.203Z,5.42
2022-09-23T04:31:55.854Z,5.40
2022-09-23T04:33:46.394Z,5.38
2022-09-23T04:35:40.350Z,5.38
2022-09-23T04:37:31.398Z,5.37
2022-09-23T04:39:21.592Z,5.35
2022-09-23T04:41:12.629Z,5.33
2022-09-23T04:43:03.308Z,5.32
2022-09-23T04:44:53.995Z,5.31
2022-09-23T04:46:47.547Z,5.31
2022-09-23T04:48:39.160Z,5.31
2022-09-23T04:50:29.591Z,5.32
2022-09-23T04:52:20.178Z,5.31
2022-09-23T04:54:11.990Z,5.32
2022-09-23T04:56:03.005Z,5.33
2022-09-23T04:57:53.461Z,5.35
2022-09-23T04:59:45.344Z,5.36
2022-09-23T05:01:36.508Z,5.37
2022-09-23T05:03:27.341Z,5.41
2022-09-23T05:05:22.349Z,5.43
2022-09-23T05:07:13.195Z,5.49
2022-09-23T05:09:08.088Z,5.55
2022-09-23T05:10:58.970Z,5.61
2022-09-23T05:12:52.458Z,5.64
2022-09-23T05:14:45.444Z,5.68
2022-09-23T05:16:36.142Z,5.71
2022-09-23T05:18:27.990Z,5.76
2022-09-23T05:20:19.221Z,5.80
2022-09-23T05:22:09.524Z,5.85
2022-09-23T05:24:00.937Z,5.90
2022-09-23T05:26:02.101Z,5.97
2022-09-23T05:27:52.685Z,6.03
2022-09-23T05:29:42.905Z,6.10
2022-09-23T05:31:33.700Z,6.15
2022-09-23T05:33:23.871Z,6.24
2022-09-23T05:35:14.280Z,6.35
2022-09-23T05:37:05.427Z,6.98
2022-09-23T05:38:58.998Z,8.13
2022-09-23T05:40:59.539Z,9.26
2022-09-23T05:42:51.454Z,10.27
2022-09-23T05:44:42.042Z,11.09
2022-09-23T05:46:33.201Z,11.82
2022-09-23T05:48:23.713Z,12.55
2022-09-23T05:50:14.053Z,13.15
2022-09-23T05:52:04.450Z,13.69
2022-09-23T05:53:55.705Z,14.24
2022-09-23T05:55:46.115Z,14.70
2022-09-23T05:57:36.753Z,15.22
2022-09-23T05:59:26.877Z,15.73
2022-09-23T06:01:18.540Z,16.12
2022-09-23T06:03:13.317Z,16.46
2022-09-23T06:05:03.621Z,16.80
2022-09-23T06:06:53.800Z,17.13
2022-09-23T06:08:45.055Z,17.36
2022-09-23T06:10:39.178Z,17.72
2022-09-23T06:12:29.379Z,18.06
2022-09-23T06:14:19.810Z,18.35
2022-09-23T06:16:14.908Z,18.59
2022-09-23T06:18:05.900Z,18.78
2022-09-23T06:19:56.081Z,18.90
2022-09-23T06:21:48.709Z,19.07
2022-09-23T06:23:41.627Z,19.30
2022-09-23T06:25:35.326Z,19.55
2022-09-23T06:27:25.782Z,19.71
2022-09-23T06:29:16.255Z,19.92
2022-09-23T06:31:14.959Z,20.17
2022-09-23T06:33:05.402Z,20.40
2022-09-23T06:34:55.722Z,20.58
2022-09-23T06:36:46.721Z,20.75
2022-09-23T06:38:49.296Z,20.88
2022-09-23T06:40:40.174Z,20.97
2022-09-23T06:42:30.675Z,21.13
2022-09-23T06:44:21.178Z,21.31
2022-09-23T06:46:13.914Z,21.42
2022-09-23T06:48:06.149Z,21.48
2022-09-23T06:49:56.197Z,21.50
2022-09-23T06:51:46.594Z,21.53
2022-09-23T06:53:37.413Z,21.73
2022-09-23T06:55:27.853Z,21.82
2022-09-23T06:57:17.996Z,21.75
2022-09-23T06:59:10.781Z,21.56
2022-09-23T07:01:02.498Z,21.55
2022-09-23T07:02:52.904Z,21.55
2022-09-23T07:04:43.616Z,21.57
2022-09-23T07:06:34.109Z,21.44
2022-09-23T07:08:26.468Z,21.36
2022-09-23T07:10:16.926Z,21.37
2022-09-23T07:12:07.320Z,21.27
2022-09-23T07:13:57.861Z,21.24
2022-09-23T07:15:52.313Z,21.15
2022-09-23T07:17:43.185Z,21.06
2022-09-23T07:19:36.213Z,20.89
2022-09-23T07:21:27.943Z,20.82
2022-09-23T07:23:18.311Z,20.82
2022-09-23T07:25:09.646Z,20.56
2022-09-23T07:27:00.254Z,20.36
2022-09-23T07:28:57.715Z,20.08
2022-09-23T07:30:58.277Z,20.05
2022-09-23T07:32:50.672Z,20.03
2022-09-23T07:34:41.199Z,20.03
2022-09-23T07:36:32.876Z,19.92
2022-09-23T07:38:30.461Z,19.81
2022-09-23T07:40:20.910Z,19.84
2022-09-23T07:42:12.479Z,19.77
2022-09-23T07:44:03.614Z,19.74
2022-09-23T07:45:54.632Z,19.74
2022-09-23T07:47:45.510Z,19.77
2022-09-23T07:49:36.231Z,19.75
2022-09-23T07:51:33.280Z,19.62
2022-09-23T07:53:26.786Z,19.59
2022-09-23T07:55:20.986Z,19.48
2022-09-23T07:57:11.875Z,19.37
2022-09-23T07:59:05.875Z,19.26
2022-09-23T08:01:01.162Z,19.15
2022-09-23T08:02:53.089Z,19.01
2022-09-23T08:04:43.697Z,19.02
2022-09-23T08:06:34.464Z,18.85
2022-09-23T08:08:25.017Z,18.72
2022-09-23T08:10:19.123Z,18.58
2022-09-23T08:12:15.215Z,18.27
2022-09-23T08:14:07.925Z,17.94
2022-09-23T08:15:58.828Z,17.65
2022-09-23T08:17:49.643Z,17.48
2022-09-23T08:19:40.139Z,17.36
2022-09-23T08:21:30.710Z,17.21
2022-09-23T08:23:21.307Z,17.09
2022-09-23T08:25:12.065Z,16.99
2022-09-23T08:27:02.446Z,16.96
2022-09-23T08:28:55.129Z,16.86
2022-09-23T08:30:47.971Z,16.68
2022-09-23T08:32:39.427Z,16.48
2022-09-23T08:34:29.778Z,16.20
2022-09-23T08:36:20.361Z,15.85
2022-09-23T08:38:11.263Z,15.48
2022-09-23T08:40:01.843Z,15.05
2022-09-23T08:41:58.810Z,14.76
2022-09-23T08:43:52.859Z,14.54
2022-09-23T08:45:43.761Z,14.26
2022-09-23T08:47:52.540Z,14.08
2022-09-23T08:49:46.023Z,13.93
2022-09-23T08:51:41.150Z,13.82
2022-09-23T08:53:36.148Z,13.71
2022-09-23T08:55:46.076Z,13.66
2022-09-23T08:58:24.362Z,13.62
2022-09-23T09:00:19.169Z,13.62
2022-09-23T09:02:15.138Z,13.60
2022-09-23T09:04:14.789Z,13.62
2022-09-23T09:06:05.287Z,13.63
2022-09-23T09:07:57.632Z,13.67
2022-09-23T09:10:18.667Z,13.73
2022-09-23T09:12:11.923Z,13.77
2022-09-23T09:14:17.422Z,13.78
2022-09-23T09:16:18.822Z,13.76
2022-09-23T09:18:21.398Z,13.76
2022-09-23T09:20:14.962Z,13.79
2022-09-23T09:22:09.364Z,13.83
2022-09-23T09:24:00.346Z,13.87
2022-09-23T09:25:52.124Z,13.89
2022-09-23T09:27:42.438Z,13.90
2022-09-23T09:29:38.980Z,13.94
2022-09-23T09:31:43.558Z,14.00
2022-09-23T09:33:41.085Z,14.04
2022-09-23T09:35:40.783Z,14.08
2022-09-23T09:37:35.902Z,14.08
2022-09-23T09:39:27.365Z,14.11
2022-09-23T09:41:18.382Z,14.16
2022-09-23T09:43:08.730Z,14.23
2022-09-23T09:45:02.881Z,14.31
2022-09-23T09:47:06.737Z,14.41
2022-09-23T09:49:00.773Z,14.53
2022-09-23T09:50:52.223Z,14.65
2022-09-23T09:52:43.325Z,14.70
2022-09-23T09:54:33.751Z,14.79
2022-09-23T09:56:07.512Z,14.83
2022-09-23T09:57:52.216Z,14.88
2022-09-23T09:59:28.179Z,14.93
2022-09-23T10:01:00.251Z,14.99
2022-09-23T10:02:35.857Z,15.05
2022-09-23T10:04:33.108Z,15.09
2022-09-23T10:06:15.210Z,15.21
2022-09-23T10:07:48.635Z,15.28
2022-09-23T10:09:34.770Z,15.34
2022-09-23T10:11:15.175Z,15.44
2022-09-23T10:12:49.123Z,15.60
2022-09-23T10:14:20.953Z,15.80
2022-09-23T10:15:55.015Z,16.02
2022-09-23T10:17:26.948Z,16.20
2022-09-23T10:19:00.455Z,16.36
2022-09-23T10:20:37.997Z,16.52
2022-09-23T10:22:16.426Z,16.76
2022-09-23T10:23:52.171Z,16.94
2022-09-23T10:25:26.753Z,17.14
2022-09-23T10:27:01.021Z,17.34
2022-09-23T10:28:40.371Z,17.51
2022-09-23T10:30:15.302Z,17.64
2022-09-23T10:31:47.314Z,17.77
2022-09-23T10:33:28.337Z,17.97
2022-09-23T10:35:16.861Z,18.20
2022-09-23T10:37:02.680Z,18.31
2022-09-23T10:38:34.600Z,18.47
2022-09-23T10:40:36.078Z,18.61
2022-09-23T10:42:37.805Z,18.73
2022-09-23T10:44:28.386Z,18.89
2022-09-23T10:46:22.153Z,19.04
2022-09-23T10:48:10.240Z,19.19
2022-09-23T10:49:50.970Z,19.31
2022-09-23T10:51:33.318Z,19.55
2022-09-23T10:53:30.074Z,19.85
2022-09-23T10:55:39.486Z,20.10
2022-09-23T10:57:54.515Z,20.27
2022-09-23T10:59:29.252Z,20.49
2022-09-23T11:01:04.328Z,20.40
2022-09-23T11:03:02.943Z,20.49
2022-09-23T11:05:04.881Z,20.57
2022-09-23T11:06:55.676Z,20.61
2022-09-23T11:08:27.563Z,20.45
2022-09-23T11:10:02.652Z,20.32
2022-09-23T11:11:34.465Z,20.11
2022-09-23T11:13:09.224Z,19.81
2022-09-23T11:14:50.426Z,19.62
2022-09-23T11:16:41.255Z,19.54
2022-09-23T11:18:13.111Z,19.36
2022-09-23T11:19:57.909Z,19.24
2022-09-23T11:21:38.631Z,19.09
2022-09-23T11:23:10.672Z,18.97
2022-09-23T11:24:58.395Z,18.93
2022-09-23T11:26:45.274Z,18.97
2022-09-23T11:28:26.205Z,19.05
2022-09-23T11:29:58.129Z,19.11
2022-09-23T11:31:36.046Z,19.20
2022-09-23T11:33:27.136Z,19.26
2022-09-23T11:35:17.540Z,19.31
2022-09-23T11:36:56.341Z,19.19
2022-09-23T11:38:33.858Z,19.07
2022-09-23T11:40:13.244Z,18.95
2022-09-23T11:41:46.886Z,18.80
2022-09-23T11:43:21.722Z,18.59
2022-09-23T11:44:58.833Z,18.43
2022-09-23T11:46:34.556Z,18.28
2022-09-23T11:48:11.550Z,18.19
2022-09-23T11:49:50.351Z,18.13
2022-09-23T11:51:27.113Z,18.11
2022-09-23T11:53:04.942Z,18.11
2022-09-23T11:54:49.790Z,18.09
2022-09-23T11:56:34.840Z,18.13
2022-09-23T11:58:24.441Z,18.19
2022-09-23T12:00:06.477Z,18.16
2022-09-23T12:01:45.403Z,18.11
2022-09-23T12:03:43.531Z,18.12
2022-09-23T12:05:18.489Z,18.08
2022-09-23T12:06:54.655Z,18.03
2022-09-23T12:08:26.792Z,17.97
2022-09-23T12:10:03.701Z,17.90
2022-09-23T12:11:48.996Z,17.88
2022-09-23T12:13:25.461Z,17.82
2022-09-23T12:15:03.408Z,17.78
2022-09-23T12:16:39.088Z,17.76
2022-09-23T12:18:23.454Z,17.71
2022-09-23T12:20:05.151Z,17.60
2022-09-23T12:21:50.560Z,17.51
2022-09-23T12:23:25.749Z,17.47
2022-09-23T12:25:00.755Z,17.46
2022-09-23T12:26:33.533Z,17.42
2022-09-23T12:28:11.328Z,17.37
2022-09-23T12:29:43.385Z,17.35
2022-09-23T12:31:19.352Z,17.34
2022-09-23T12:32:51.466Z,17.32
2022-09-23T12:34:27.719Z,17.36
2022-09-23T12:36:07.066Z,17.47
2022-09-23T12:37:39.056Z,17.68
2022-09-23T12:39:17.285Z,17.88
2022-09-23T12:40:49.638Z,18.05
2022-09-23T12:42:24.325Z,18.23
2022-09-23T12:44:15.975Z,18.39
2022-09-23T12:45:48.172Z,18.57
2022-09-23T12:47:28.088Z,18.67
2022-09-23T12:49:01.127Z,18.74
2022-09-23T12:50:48.136Z,18.74
2022-09-23T12:52:20.034Z,18.68
2022-09-23T12:53:54.024Z,18.68
2022-09-23T12:55:34.929Z,18.69
2022-09-23T12:57:40.377Z,18.58
2022-09-23T12:59:44.722Z,18.36
2022-09-23T13:01:21.039Z,18.07
2022-09-23T13:03:20.787Z,17.98
2022-09-23T13:05:16.976Z,17.97
2022-09-23T13:07:08.350Z,17.95
2022-09-23T13:08:41.503Z,18.02
2022-09-23T13:10:39.364Z,18.06
2022-09-23T13:12:25.749Z,18.12
2022-09-23T13:14:00.712Z,18.16
2022-09-23T13:15:36.407Z,18.19
2022-09-23T13:17:21.350Z,18.23
2022-09-23T13:18:54.866Z,18.19
2022-09-23T13:20:36.568Z,18.19
2022-09-23T13:22:09.613Z,18.22
2022-09-23T13:24:01.477Z,18.24
2022-09-23T13:25:39.002Z,18.24
2022-09-23T13:27:13.768Z,18.25
2022-09-23T13:28:56.877Z,18.27
2022-09-23T13:30:28.899Z,18.18
2022-09-23T13:32:01.736Z,18.19
2022-09-23T13:33:47.385Z,18.09
2022-09-23T13:35:36.795Z,17.96
2022-09-23T13:37:21.484Z,17.86
2022-09-23T13:39:13.136Z,17.87
2022-09-23T13:40:45.238Z,17.78
2022-09-23T13:42:27.590Z,17.74
2022-09-23T13:43:59.613Z,17.72
2022-09-23T13:45:32.204Z,17.73
2022-09-23T13:47:04.274Z,17.70
2022-09-23T13:48:36.201Z,17.72
2022-09-23T13:50:13.261Z,17.70
2022-09-23T13:51:45.412Z,17.70
2022-09-23T13:53:23.392Z,17.70
2022-09-23T13:54:55.704Z,17.68
2022-09-23T13:56:29.282Z,17.66
2022-09-23T13:58:05.729Z,17.66
2022-09-23T13:59:41.041Z,17.64
2022-09-23T14:01:22.241Z,17.63
2022-09-23T14:02:54.148Z,17.61
2022-09-23T14:04:26.191Z,17.54
2022-09-23T14:06:01.666Z,17.51
2022-09-23T14:07:33.610Z,17.49
2022-09-23T14:09:06.134Z,17.48
2022-09-23T14:10:43.750Z,17.46
2022-09-23T14:12:21.961Z,17.46
2022-09-23T14:13:55.131Z,17.46
2022-09-23T14:15:27.063Z,17.44
2022-09-23T14:16:59.359Z,17.43
2022-09-23T14:18:36.584Z,17.39
2022-09-23T14:20:15.371Z,17.35
2022-09-23T14:21:48.391Z,17.31
2022-09-23T14:23:20.372Z,17.29
2022-09-23T14:24:52.863Z,17.23
2022-09-23T14:26:25.275Z,17.19
2022-09-23T14:28:00.344Z,17.17
2022-09-23T14:29:37.129Z,17.14
2022-09-23T14:31:09.146Z,17.11
2022-09-23T14:32:41.939Z,17.08
2022-09-23T14:34:32.527Z,17.05
2022-09-23T14:36:29.097Z,17.01
2022-09-23T14:38:19.815Z,16.95
2022-09-23T14:39:55.747Z,16.92
2022-09-23T14:41:34.005Z,16.89
2022-09-23T14:43:08.634Z,16.86
2022-09-23T14:44:40.934Z,16.84
2022-09-23T14:46:16.243Z,16.82
2022-09-23T14:47:52.790Z,16.79
2022-09-23T14:49:25.206Z,16.75
2022-09-23T14:51:13.236Z,16.71
2022-09-23T14:52:49.914Z,16.66
2022-09-23T14:54:40.080Z,16.61
2022-09-23T14:56:13.796Z,16.57
2022-09-23T14:57:46.143Z,16.52
2022-09-23T14:59:34.275Z,16.47
2022-09-23T15:01:22.150Z,16.40
2022-09-23T15:02:58.561Z,16.32
2022-09-23T15:04:32.389Z,16.27
2022-09-23T15:06:08.854Z,16.23
2022-09-23T15:07:41.015Z,16.17
2022-09-23T15:09:39.364Z,16.13
2022-09-23T15:11:11.603Z,16.08
2022-09-23T15:12:46.957Z,16.03
2022-09-23T15:14:37.266Z,15.98
2022-09-23T15:16:12.157Z,15.91
2022-09-23T15:17:44.461Z,15.87
2022-09-23T15:19:19.143Z,15.81
2022-09-23T15:20:52.337Z,15.75
2022-09-23T15:22:24.947Z,15.69
2022-09-23T15:23:57.390Z,15.63
2022-09-23T15:25:40.138Z,15.55
2022-09-23T15:27:23.190Z,15.49
2022-09-23T15:28:56.221Z,15.40
2022-09-23T15:30:28.732Z,15.31
2022-09-23T15:32:00.885Z,15.21
2022-09-23T15:33:35.272Z,15.10
2022-09-23T15:35:07.841Z,14.98
2022-09-23T15:36:39.985Z,14.87
2022-09-23T15:38:12.286Z,14.74
2022-09-23T15:39:44.381Z,14.62
2022-09-23T15:41:17.469Z,14.50
2022-09-23T15:42:53.040Z,14.38
2022-09-23T15:44:29.598Z,14.26
2022-09-23T15:46:22.268Z,14.13
2022-09-23T15:47:55.803Z,13.99
2022-09-23T15:49:39.026Z,13.88
2022-09-23T15:51:14.185Z,13.78
2022-09-23T15:52:48.298Z,13.72
2022-09-23T15:54:21.706Z,13.63
2022-09-23T15:55:54.169Z,13.55
2022-09-23T15:57:26.124Z,13.47
2022-09-23T15:58:57.965Z,13.39
2022-09-23T16:00:29.956Z,13.31
2022-09-23T16:02:05.785Z,13.23
2022-09-23T16:03:38.546Z,13.15
2022-09-23T16:05:18.774Z,13.06
2022-09-23T16:06:50.748Z,12.96
2022-09-23T16:08:24.108Z,12.89
2022-09-23T16:09:58.700Z,12.80
2022-09-23T16:11:31.929Z,12.72
2022-09-23T16:13:06.328Z,12.63
2022-09-23T16:14:38.215Z,12.55
2022-09-23T16:16:10.876Z,12.46
2022-09-23T16:17:44.338Z,12.39
2022-09-23T16:19:17.730Z,12.32
2022-09-23T16:20:50.278Z,12.27
2022-09-23T16:22:22.206Z,12.21
2022-09-23T16:23:54.993Z,12.16
2022-09-23T16:25:28.395Z,12.09
2022-09-23T16:27:03.090Z,12.05
2022-09-23T16:28:35.069Z,11.97
2022-09-23T16:30:07.632Z,11.91
2022-09-23T16:31:39.714Z,11.84
2022-09-23T16:33:11.795Z,11.79
2022-09-23T16:34:46.178Z,11.73
2022-09-23T16:36:25.951Z,11.69
2022-09-23T16:37:57.836Z,11.63
2022-09-23T16:39:29.712Z,11.57
2022-09-23T16:41:03.038Z,11.51
2022-09-23T16:42:35.354Z,11.45
2022-09-23T16:44:08.299Z,11.40
2022-09-23T16:45:40.290Z,11.33
2022-09-23T16:47:12.321Z,11.25
2022-09-23T16:48:49.720Z,11.18
2022-09-23T16:50:24.378Z,11.10
2022-09-23T16:51:56.261Z,11.02
2022-09-23T16:53:28.949Z,10.95
2022-09-23T16:55:00.931Z,10.87
2022-09-23T16:56:33.142Z,10.80
2022-09-23T16:58:05.227Z,10.72
2022-09-23T16:59:55.546Z,10.63
2022-09-23T17:02:04.528Z,10.52
2022-09-23T17:03:55.069Z,10.46
2022-09-23T17:05:34.058Z,10.40
2022-09-23T17:07:07.904Z,10.33
2022-09-23T17:08:40.846Z,10.29
2022-09-23T17:10:12.794Z,10.25
2022-09-23T17:11:47.821Z,10.22
2022-09-23T17:13:19.818Z,10.15
2022-09-23T17:14:52.497Z,10.11
2022-09-23T17:16:26.027Z,10.06
2022-09-23T17:17:57.929Z,10.03
2022-09-23T17:19:37.934Z,10.01
2022-09-23T17:21:09.852Z,9.99
2022-09-23T17:23:00.246Z,9.96
2022-09-23T17:24:43.134Z,9.94
2022-09-23T17:26:15.157Z,9.91
2022-09-23T17:27:47.609Z,9.89
2022-09-23T17:29:19.547Z,9.86
2022-09-23T17:31:10.221Z,9.83
2022-09-23T17:32:42.650Z,9.82
2022-09-23T17:34:14.662Z,9.78
2022-09-23T17:35:46.733Z,9.74
2022-09-23T17:37:18.737Z,9.70
2022-09-23T17:38:53.469Z,9.65
2022-09-23T17:40:26.197Z,9.63
2022-09-23T17:41:58.551Z,9.61
2022-09-23T17:43:31.689Z,9.57
2022-09-23T17:45:03.882Z,9.56
2022-09-23T17:46:35.788Z,9.54
2022-09-23T17:48:07.680Z,9.54
2022-09-23T17:49:39.525Z,9.50
2022-09-23T17:51:15.775Z,9.49
2022-09-23T17:52:48.066Z,9.46
2022-09-23T17:54:20.102Z,9.45
2022-09-23T17:56:11.885Z,9.43
2022-09-23T17:57:43.849Z,9.44
2022-09-23T17:59:15.814Z,9.47
2022-09-23T18:00:47.761Z,9.46
2022-09-23T18:02:20.994Z,9.44
2022-09-23T18:03:53.964Z,9.41
2022-09-23T18:05:25.883Z,9.41
2022-09-23T18:06:57.836Z,9.39
2022-09-23T18:08:30.351Z,9.38
2022-09-23T18:10:02.284Z,9.37
2022-09-23T18:11:35.572Z,9.35
2022-09-23T18:13:07.467Z,9.33
2022-09-23T18:14:39.374Z,9.31
2022-09-23T18:16:11.438Z,9.28
2022-09-23T18:17:43.454Z,9.27
2022-09-23T18:19:19.259Z,9.26
2022-09-23T18:20:51.113Z,9.24
2022-09-23T18:22:23.139Z,9.23
2022-09-23T18:23:59.848Z,9.22
2022-09-23T18:25:39.868Z,9.21
2022-09-23T18:27:12.062Z,9.18
2022-09-23T18:28:44.310Z,9.17
2022-09-23T18:30:17.106Z,9.14
2022-09-23T18:31:51.077Z,9.10
2022-09-23T18:33:23.811Z,9.04
2022-09-23T18:34:55.745Z,9.00
2022-09-23T18:36:29.001Z,8.96
2022-09-23T18:38:00.946Z,8.93
2022-09-23T18:39:32.845Z,8.91
2022-09-23T18:41:04.844Z,8.89
2022-09-23T18:42:40.333Z,8.88
2022-09-23T18:44:12.285Z,8.87
2022-09-23T18:45:44.133Z,8.86
2022-09-23T18:47:35.983Z,8.84
2022-09-23T18:49:27.246Z,8.83
2022-09-23T18:50:59.177Z,8.85
2022-09-23T18:52:31.079Z,8.86
2022-09-23T18:54:03.679Z,8.88
2022-09-23T18:55:36.222Z,8.88
2022-09-23T18:57:08.563Z,8.87
2022-09-23T18:58:45.109Z,8.87
2022-09-23T19:00:17.049Z,8.89
2022-09-23T19:01:50.116Z,8.90
2022-09-23T19:03:22.214Z,8.91
2022-09-23T19:04:54.990Z,8.90
2022-09-23T19:06:26.946Z,8.89
2022-09-23T19:07:58.899Z,8.87
2022-09-23T19:09:30.825Z,8.85
2022-09-23T19:11:04.037Z,8.84
2022-09-23T19:12:36.728Z,8.84
2022-09-23T19:14:11.254Z,8.83
2022-09-23T19:15:43.548Z,8.84
2022-09-23T19:17:16.303Z,8.83
2022-09-23T19:18:49.038Z,8.82
2022-09-23T19:20:22.376Z,8.84
2022-09-23T19:21:54.824Z,8.83
2022-09-23T19:23:28.085Z,8.83
2022-09-23T19:25:00.031Z,8.82
2022-09-23T19:26:34.355Z,8.79
2022-09-23T19:28:08.339Z,8.76
2022-09-23T19:29:40.349Z,8.75
2022-09-23T19:31:15.325Z,8.74
2022-09-23T19:32:49.043Z,8.74
2022-09-23T19:34:24.806Z,8.74
2022-09-23T19:35:58.489Z,8.74
2022-09-23T19:37:30.409Z,8.75
2022-09-23T19:39:03.877Z,8.76
2022-09-23T19:40:37.273Z,8.75
2022-09-23T19:42:09.345Z,8.75
2022-09-23T19:43:41.279Z,8.77
2022-09-23T19:45:13.284Z,8.77
2022-09-23T19:46:53.411Z,8.77
2022-09-23T19:48:28.310Z,8.76
2022-09-23T19:50:00.276Z,8.76
2022-09-23T19:51:34.164Z,8.75
2022-09-23T19:53:06.841Z,8.77
2022-09-23T19:54:38.835Z,8.75
2022-09-23T19:56:10.816Z,8.72
2022-09-23T19:57:42.961Z,8.69
2022-09-23T19:59:18.515Z,8.70
2022-09-23T20:00:51.217Z,8.69
2022-09-23T20:02:23.339Z,8.67
2022-09-23T20:03:55.785Z,8.65
2022-09-23T20:05:28.450Z,8.62
2022-09-23T20:07:01.135Z,8.59
2022-09-23T20:08:34.886Z,8.58
2022-09-23T20:10:07.588Z,8.59
2022-09-23T20:11:42.859Z,8.56
2022-09-23T20:13:15.048Z,8.54
2022-09-23T20:14:46.958Z,8.53
2022-09-23T20:16:19.994Z,8.54
2022-09-23T20:17:54.645Z,8.54
2022-09-23T20:19:26.577Z,8.52
2022-09-23T20:20:58.482Z,8.52
2022-09-23T20:22:33.555Z,8.50
2022-09-23T20:24:06.996Z,8.52
2022-09-23T20:25:57.622Z,8.56
2022-09-23T20:27:34.417Z,8.56
2022-09-23T20:29:06.544Z,8.56
2022-09-23T20:30:39.137Z,8.55
2022-09-23T20:32:11.401Z,8.55
2022-09-23T20:33:43.411Z,8.55
2022-09-23T20:35:16.362Z,8.52
2022-09-23T20:36:51.006Z,8.54
2022-09-23T20:38:22.922Z,8.56
2022-09-23T20:39:54.892Z,8.57
2022-09-23T20:41:27.294Z,8.58
2022-09-23T20:42:59.344Z,8.58
2022-09-23T20:44:31.243Z,8.58
2022-09-23T20:46:04.158Z,8.60
2022-09-23T20:47:36.041Z,8.61
2022-09-23T20:49:08.783Z,8.61
2022-09-23T20:50:41.926Z,8.67
2022-09-23T20:52:15.337Z,8.71
2022-09-23T20:53:53.362Z,8.72
2022-09-23T20:55:25.256Z,8.70
2022-09-23T20:56:57.583Z,8.65
2022-09-23T20:58:30.677Z,8.61
2022-09-23T21:00:02.851Z,8.57
2022-09-23T21:01:38.669Z,8.54
2022-09-23T21:03:11.360Z,8.52
2022-09-23T21:04:44.516Z,8.50
2022-09-23T21:06:17.268Z,8.49
2022-09-23T21:07:49.182Z,8.47
2022-09-23T21:09:21.371Z,8.44
2022-09-23T21:10:56.250Z,8.43
2022-09-23T21:12:28.161Z,8.39
2022-09-23T21:14:01.492Z,8.37
2022-09-23T21:15:36.279Z,8.40
2022-09-23T21:17:08.171Z,8.42
2022-09-23T21:18:40.113Z,8.43
2022-09-23T21:20:12.105Z,8.46
2022-09-23T21:21:44.128Z,8.44
2022-09-23T21:23:16.051Z,8.42
2022-09-23T21:25:27.051Z,8.39
2022-09-23T21:26:44.490Z,8.35
2022-09-23T21:28:16.617Z,8.34
2022-09-23T21:29:48.502Z,8.30
2022-09-23T21:31:25.503Z,8.27
2022-09-23T21:32:59.551Z,8.30
2022-09-23T21:34:32.148Z,8.33
2022-09-23T21:36:05.215Z,8.40
2022-09-23T21:37:37.450Z,8.40
2022-09-23T21:39:10.522Z,8.40
2022-09-23T21:40:57.604Z,8.39
2022-09-23T21:42:29.928Z,8.40
2022-09-23T21:44:02.806Z,8.39
2022-09-23T21:45:34.900Z,8.37
2022-09-23T21:47:06.867Z,8.31
2022-09-23T21:48:42.873Z,8.28
2022-09-23T21:50:14.883Z,8.28
2022-09-23T21:51:47.592Z,8.28
2022-09-23T21:53:19.985Z,8.26
2022-09-23T21:54:52.111Z,8.28
2022-09-23T21:56:25.412Z,8.29
2022-09-23T21:57:57.283Z,8.30
2022-09-23T21:59:29.427Z,8.27
2022-09-23T22:01:06.379Z,8.25
2022-09-23T22:02:56.672Z,8.24
2022-09-23T22:04:47.206Z,8.26
2022-09-23T22:06:21.633Z,8.31
2022-09-23T22:07:54.330Z,8.43
2022-09-23T22:09:26.367Z,8.54
2022-09-23T22:10:58.279Z,8.59